Gallatin Field
KBZN : rendu visible

Aérodrome :











RETROUVEZ-NOUS SUR...

 
LOGIN :

S'inscrire | Disclaimer

   EN    FR    IT 

 









Légende :    VFR   VFR Marginal   IFR   IFR Intensif   IFR Très Intensif
Visi : 
Plafond : 
>= 8 km
>= 3000ft
5 à 8 km
1000 à 3000 ft
1500m à 5 km
500 à 1000 ft
800 à 1500m
200 à 500 ft
< 800m
< 200 ft
Symboles :   Orages  Brouillard  Fortes neiges  Fortes précipitations  Vent > 20 kt






- Altitude de l'aérodrome : 4473 ft
- Code IATA : BZN


KBZN - Gallatin Field

DERNIER METAR :
  • 061156Z AUTO 14003KT 10SM CLR 10/08 A2989 RMK AO2 SLP084 T01000078 10200 20100 53001

METARs EXPIRÉS :
  • 061056Z AUTO 00000KT 10SM CLR 12/08 A2989 RMK AO2 SLP081 T01220083
  • 060956Z AUTO 19005KT 10SM CLR 15/08 A2989 RMK AO2 SLP073 T01500083

TAF KBZN
Valide du 06 à 12h jusqu'au 07 à 18h UTC


061137Z 0612/0718 VRB05KT P6SM FEW150 SCT250
FM061900 VRB06KT P6SM VCTS SCT080CB
PROB30 0621/0703 VRB15G25KT 5SM TSRA BR BKN070CB
FM070300 VRB06KT P6SM SCT150 BKN250
FM071000 VRB06KT P6SM FEW150 SCT250
FIR KZLC / Amérique du Nord



MET'MAP, la Météo Aéronautique d'un coup d'oeil ! - Copyright ORBIFLY Décembre 2007 - Disclaimer

ORBIFLY MET'MAP TEAM :

Programmation & Développement : Alexandra Zaïnal
Sur une idée originale de : Baudouin d'Aumeries
Assistance à la programmation : Marc-Olivier Méhu
Soutien technique & logistique : Manuel Goepfert

Contact : metmap@orbifly.com




SOURCES & CREDITS :

   NOAA       Earth
Advisory